Airfield :
LOGIN :

Register | Disclaimer

   EN    FR    IT 

 










Legend :    VFR   Marginal VFR   IFR   Intensive IFR   Very Intensive IFR
Visi :
Ceiling :
>= 8 km
>= 3000ft
5 to 8 km
1000 to 3000 ft
1500m to 5 km
500 to 1000 ft
800 to 1500m
200 to 500 ft
< 800m
< 200 ft
Symbols :   Thunderstorms  Fog  Heavy snow  Heavy precipitations  Wind > 20 kt
SIGMETs :     Misc.  Thunderstorms  Icing  Turbulence  Mountain Waves  Volcanic Ashes







- Airport Elevation : 1079 ft


ETIK - Illesheim Air Base

CURRENT METAR :
  • 191256Z AUTO 03004KT 9999 FEW035 18/10 A3021 RMK AO2 SLP232 T01830101 $

EXPIRED METARs :
  • 191156Z AUTO 11004KT 9999 CLR 18/10 A3022 RMK AO2 SLP236 T01750104 10176 20051 58011 $

TAF TAF ETIK
Valid from the 19 at 13:00 until the 20 at 19:00 UTC


191301Z 1913/2019 VRB06KT 9999 FEW020 QNH3018INS
BECMG 1923/1924 VRB06KT 6000 BR SKC QNH3022INS
BECMG 2000/2001 VRB06KT 3200 BR FEW001 QNH3024INS
BECMG 2001/2002 VRB06KT 0400 FG VV001 QNH3032INS
BECMG 2009/2010 01006KT 9999 NSW FEW002 SCT010 QNH3032INS
BECMG 2011/2012 02006KT 9999 SCT030 QNH3032INS TX18/1913Z TN04/2006Z
No reported NOTAMs for that airfield.



MET'MAP, your aeronautical weather chart ! - Copyright ORBIFLY December 2007 - Disclaimer

ORBIFLY MET'MAP TEAM :

Programming & Development : Alexandra Zaïnal
Concept & Development : Baudouin d'Aumeries
Co-Development & Prog : Marc-Olivier Méhu
Technical & hardware support : Manuel Goepfert

Contact : metmap@orbifly.com




SOURCES & CREDITS :

   NOAA